Time;durP1;ratioP1;P1;durP2;ratioP2;P2;SDS_P1;SDS_P2;PMS_P1;PMS_P2;Temp;Humidity;BMP_temperature;BMP_pressure;BME280_temperature;BME280_humidity;BME280_pressure;Samples;Min_cycle;Max_cycle;Signal;HPM_P1;HPM_P2
2023/09/16 00:02:48;;;;;;;5.27;4.87;;;19.90;34.00;;;;;;10251698;28;20860;-76
2023/09/16 00:07:53;;;;;;;5.77;5.27;;;19.90;34.30;;;;;;10248069;28;20371;-77
2023/09/16 00:12:56;;;;;;;5.90;5.50;;;19.90;34.70;;;;;;10242335;28;20245;-76
2023/09/16 00:18:00;;;;;;;5.60;5.20;;;19.80;34.40;;;;;;10251341;28;20219;-77
2023/09/16 00:23:05;;;;;;;6.63;6.17;;;19.70;34.40;;;;;;10247961;28;20228;-76
2023/09/16 00:28:12;;;;;;;5.80;5.40;;;19.70;35.70;;;;;;10249119;28;20589;-77
2023/09/16 00:33:16;;;;;;;5.73;5.33;;;19.60;34.50;;;;;;10251926;28;20763;-76
2023/09/16 00:38:21;;;;;;;5.40;5.00;;;19.40;34.80;;;;;;10260944;28;20219;-76
2023/09/16 00:43:24;;;;;;;5.60;5.10;;;19.40;35.60;;;;;;10259214;28;20310;-75
2023/09/16 00:48:27;;;;;;;5.60;5.20;;;19.30;35.20;;;;;;10246090;28;20227;-76
2023/09/16 00:53:32;;;;;;;6.73;5.50;;;19.30;35.00;;;;;;10253447;28;20298;-75
2023/09/16 00:58:37;;;;;;;4.87;4.47;;;19.30;35.30;;;;;;10254972;28;20223;-75
2023/09/16 01:03:41;;;;;;;5.57;5.17;;;19.20;35.10;;;;;;10247777;28;20242;-76
2023/09/16 01:08:47;;;;;;;5.53;5.03;;;19.20;35.20;;;;;;10253079;28;20282;-75
2023/09/16 01:13:52;;;;;;;5.00;4.70;;;19.10;35.70;;;;;;10242528;28;20239;-76
2023/09/16 01:19:03;;;;;;;5.27;4.87;;;19.00;35.60;;;;;;10256268;28;20232;-76
2023/09/16 01:24:19;;;;;;;4.80;4.40;;;19.00;35.70;;;;;;10258573;28;20251;-76
2023/09/16 01:29:25;;;;;;;4.47;4.17;;;18.90;35.60;;;;;;10256367;28;20226;-76
2023/09/16 01:34:33;;;;;;;5.17;4.77;;;18.90;35.50;;;;;;10261017;28;20255;-76
2023/09/16 01:39:38;;;;;;;4.77;4.37;;;18.80;35.70;;;;;;10252250;28;20255;-76
2023/09/16 01:44:42;;;;;;;4.70;4.40;;;18.80;35.50;;;;;;10263802;28;20247;-76
2023/09/16 01:49:46;;;;;;;4.87;4.47;;;18.80;35.50;;;;;;10259200;28;20631;-77
2023/09/16 01:54:49;;;;;;;5.67;5.17;;;18.80;35.50;;;;;;10252380;28;20761;-76
2023/09/16 01:59:53;;;;;;;5.90;4.77;;;18.70;35.40;;;;;;10260118;28;20908;-76
2023/09/16 02:04:57;;;;;;;5.50;5.00;;;18.70;35.40;;;;;;10255234;28;20246;-77
2023/09/16 02:10:00;;;;;;;4.70;4.40;;;18.60;35.30;;;;;;10254977;28;20224;-76
2023/09/16 02:15:07;;;;;;;4.67;4.37;;;18.50;35.20;;;;;;10256337;28;20228;-75
2023/09/16 02:20:11;;;;;;;5.40;5.00;;;18.50;35.20;;;;;;10260652;28;20343;-76
2023/09/16 02:25:15;;;;;;;4.57;4.17;;;18.40;35.10;;;;;;10263069;28;20339;-77
2023/09/16 02:30:20;;;;;;;4.07;3.77;;;18.40;35.10;;;;;;10255018;28;20263;-77
2023/09/16 02:35:23;;;;;;;5.03;4.63;;;18.40;35.70;;;;;;10258094;28;20247;-77
2023/09/16 02:40:27;;;;;;;4.60;4.30;;;18.40;35.30;;;;;;10256716;28;20228;-76
2023/09/16 02:45:33;;;;;;;4.23;3.83;;;18.40;35.50;;;;;;10258030;28;20235;-77
2023/09/16 02:50:38;;;;;;;4.57;4.27;;;18.30;36.10;;;;;;10254547;28;20235;-76
2023/09/16 02:55:41;;;;;;;4.40;4.00;;;18.20;35.90;;;;;;10257315;28;20228;-76
2023/09/16 03:00:47;;;;;;;5.20;4.70;;;18.30;35.70;;;;;;10254064;28;20321;-77
2023/09/16 03:05:50;;;;;;;6.37;5.77;;;18.30;35.70;;;;;;10254477;28;20608;-76
2023/09/16 03:10:58;;;;;;;6.03;5.53;;;18.20;35.00;;;;;;10260015;28;20654;-76
2023/09/16 03:16:20;;;;;;;5.30;4.80;;;18.10;34.80;;;;;;10255395;28;20934;-75
2023/09/16 03:21:25;;;;;;;4.97;4.57;;;18.00;35.90;;;;;;10254872;28;20281;-76
2023/09/16 03:26:28;;;;;;;5.60;5.20;;;18.00;35.70;;;;;;10255243;28;20238;-76
2023/09/16 03:31:33;;;;;;;4.63;4.30;;;17.90;35.90;;;;;;10251054;28;20242;-76
2023/09/16 03:36:36;;;;;;;4.77;4.47;;;17.90;36.30;;;;;;10252346;28;21007;-77
2023/09/16 03:41:39;;;;;;;4.77;4.37;;;17.80;35.90;;;;;;10261382;28;20224;-76
2023/09/16 03:46:44;;;;;;;4.47;4.07;;;17.90;36.10;;;;;;10254694;28;20231;-77
2023/09/16 03:51:47;;;;;;;4.37;4.07;;;17.80;36.30;;;;;;10255883;28;20223;-77
2023/09/16 03:56:52;;;;;;;4.10;3.80;;;17.90;36.10;;;;;;10249028;28;20305;-76
2023/09/16 04:01:56;;;;;;;4.27;3.97;;;17.80;36.10;;;;;;10252544;28;20224;-77
2023/09/16 04:06:59;;;;;;;5.13;4.73;;;17.90;36.30;;;;;;10256965;28;20311;-76
2023/09/16 04:12:03;;;;;;;4.90;4.50;;;17.80;36.10;;;;;;10251033;28;20735;-75
2023/09/16 04:17:08;;;;;;;5.00;4.60;;;17.80;36.10;;;;;;10258660;28;20589;-76
2023/09/16 04:22:11;;;;;;;4.80;4.40;;;17.80;36.30;;;;;;10252139;28;20239;-76
2023/09/16 04:27:15;;;;;;;5.50;5.10;;;17.80;36.10;;;;;;10256946;28;20230;-76
2023/09/16 04:32:19;;;;;;;4.53;4.23;;;17.70;36.10;;;;;;10254220;28;20223;-76
2023/09/16 04:37:23;;;;;;;5.17;4.20;;;17.70;36.40;;;;;;10252189;28;20745;-76
2023/09/16 04:42:30;;;;;;;5.27;4.80;;;17.60;36.20;;;;;;10253201;28;20314;-77
2023/09/16 04:47:35;;;;;;;5.07;4.67;;;17.50;36.30;;;;;;10262282;28;20238;-76
2023/09/16 04:52:38;;;;;;;5.10;4.30;;;17.50;36.40;;;;;;10258545;28;20314;-77
2023/09/16 04:57:41;;;;;;;5.67;5.17;;;17.50;36.20;;;;;;10262371;28;20234;-76
2023/09/16 05:02:48;;;;;;;6.83;5.97;;;17.50;36.30;;;;;;10266244;28;20286;-77
2023/09/16 05:07:51;;;;;;;6.50;5.90;;;17.40;36.50;;;;;;10258497;28;20243;-76
2023/09/16 05:12:55;;;;;;;6.13;5.63;;;17.40;36.50;;;;;;10264492;28;20635;-76
2023/09/16 05:18:03;;;;;;;6.27;5.77;;;17.30;36.60;;;;;;10268967;28;20640;-75
2023/09/16 05:23:08;;;;;;;5.60;5.10;;;17.30;36.90;;;;;;10260911;28;20303;-76
2023/09/16 05:28:11;;;;;;;6.30;5.80;;;17.30;36.70;;;;;;10266279;28;20235;-76
2023/09/16 05:33:16;;;;;;;5.77;5.17;;;17.30;36.40;;;;;;10260858;28;20231;-77
2023/09/16 05:38:19;;;;;;;5.67;5.07;;;17.30;37.00;;;;;;10258041;28;20249;-77
2023/09/16 05:43:24;;;;;;;4.10;3.80;;;17.20;36.90;;;;;;10269801;28;20714;-77
2023/09/16 05:48:28;;;;;;;5.20;4.80;;;17.20;37.20;;;;;;10263827;28;20864;-77
2023/09/16 05:53:32;;;;;;;5.60;5.20;;;17.20;37.60;;;;;;10253644;28;20235;-77
2023/09/16 05:58:36;;;;;;;4.50;4.20;;;17.30;37.90;;;;;;10267959;28;20338;-77
2023/09/16 06:03:41;;;;;;;4.70;4.37;;;17.30;37.90;;;;;;10262231;28;20912;-77
2023/09/16 06:08:44;;;;;;;6.13;5.53;;;17.30;38.30;;;;;;10255797;28;20934;-77
2023/09/16 06:13:47;;;;;;;5.77;5.27;;;17.40;38.20;;;;;;10262411;28;21334;-77
2023/09/16 06:18:52;;;;;;;7.20;6.70;;;17.40;38.30;;;;;;10255560;28;20263;-77
2023/09/16 06:23:56;;;;;;;6.80;6.30;;;17.50;39.10;;;;;;10256408;28;20220;-77
2023/09/16 06:28:59;;;;;;;7.37;6.83;;;17.50;38.60;;;;;;10256727;28;20235;-77
2023/09/16 06:34:05;;;;;;;7.40;6.70;;;17.60;38.80;;;;;;10254073;28;20219;-76
2023/09/16 06:39:10;;;;;;;6.83;6.33;;;17.60;39.10;;;;;;10258709;28;20688;-77
2023/09/16 06:44:13;;;;;;;7.17;6.63;;;17.70;39.10;;;;;;10260488;28;20228;-77
2023/09/16 06:49:18;;;;;;;7.10;6.57;;;17.80;39.40;;;;;;10260931;28;20615;-74
2023/09/16 06:54:21;;;;;;;7.10;6.47;;;17.80;40.10;;;;;;10258260;28;21241;-77
2023/09/16 06:59:24;;;;;;;6.90;6.20;;;17.90;39.60;;;;;;10249927;28;20311;-77
2023/09/16 07:04:29;;;;;;;6.93;6.33;;;18.00;39.70;;;;;;10261253;28;20242;-77
2023/09/16 07:09:32;;;;;;;7.97;7.37;;;18.10;40.30;;;;;;10254804;28;21779;-76
2023/09/16 07:14:38;;;;;;;7.20;6.70;;;18.20;40.10;;;;;;10259119;28;20319;-76
2023/09/16 07:19:43;;;;;;;7.80;7.00;;;18.20;41.00;;;;;;10243835;28;20238;-77
2023/09/16 07:24:46;;;;;;;8.30;7.60;;;18.30;41.00;;;;;;10239526;28;20314;-76
2023/09/16 07:29:50;;;;;;;8.40;7.73;;;18.50;40.80;;;;;;10239136;28;20232;-77
2023/09/16 07:34:54;;;;;;;7.80;7.20;;;18.60;41.20;;;;;;10248768;28;20235;-76
2023/09/16 07:39:58;;;;;;;7.60;7.00;;;18.80;42.10;;;;;;10248129;28;20231;-77
2023/09/16 07:45:01;;;;;;;8.77;8.07;;;18.90;41.60;;;;;;10253248;28;20232;-77
2023/09/16 07:50:07;;;;;;;8.83;8.13;;;19.20;41.90;;;;;;10247442;28;20686;-76
2023/09/16 07:55:12;;;;;;;7.50;6.80;;;19.40;42.60;;;;;;10243539;28;20231;-76
2023/09/16 08:00:15;;;;;;;7.83;7.13;;;19.60;42.50;;;;;;10237938;28;20231;-76
2023/09/16 08:05:20;;;;;;;8.10;7.40;;;19.90;42.60;;;;;;10245067;28;20233;-77
2023/09/16 08:10:23;;;;;;;7.97;7.17;;;20.20;42.90;;;;;;10242411;28;20255;-76
2023/09/16 08:15:26;;;;;;;8.83;8.03;;;20.50;42.40;;;;;;10242668;28;21112;-76
2023/09/16 08:20:31;;;;;;;7.97;7.27;;;20.80;42.10;;;;;;10248456;28;20231;-77
2023/09/16 08:25:34;;;;;;;8.23;7.43;;;21.10;42.40;;;;;;10248496;28;20228;-77
2023/09/16 08:30:38;;;;;;;8.00;7.30;;;21.40;41.80;;;;;;10247647;28;20223;-74
2023/09/16 08:35:43;;;;;;;7.63;7.00;;;21.70;41.70;;;;;;10257764;28;20227;-74
2023/09/16 08:40:52;;;;;;;7.40;6.80;;;22.00;42.00;;;;;;10255785;28;20227;-74
2023/09/16 08:46:03;;;;;;;7.47;6.87;;;22.30;41.50;;;;;;10257737;28;20224;-74
2023/09/16 08:51:12;;;;;;;7.20;6.60;;;22.60;41.40;;;;;;10253862;28;20224;-74
2023/09/16 08:56:15;;;;;;;7.60;7.00;;;22.90;41.30;;;;;;10256246;28;20241;-74
2023/09/16 09:01:19;;;;;;;7.60;7.07;;;23.20;41.10;;;;;;10253002;28;20230;-73
2023/09/16 09:06:25;;;;;;;7.97;7.27;;;23.40;40.70;;;;;;10257770;28;20240;-73
2023/09/16 09:11:43;;;;;;;7.40;6.70;;;23.70;40.30;;;;;;10251415;28;20377;-74
2023/09/16 09:16:49;;;;;;;7.20;6.60;;;23.90;40.00;;;;;;10251967;28;20294;-74
2023/09/16 09:21:56;;;;;;;7.30;6.70;;;24.10;40.20;;;;;;10252669;28;20596;-74
2023/09/16 09:26:59;;;;;;;7.30;6.80;;;24.30;40.20;;;;;;10257422;28;20235;-74
2023/09/16 09:32:03;;;;;;;7.27;6.70;;;24.60;40.60;;;;;;10255069;28;20228;-74
2023/09/16 09:37:16;;;;;;;7.67;7.07;;;24.80;39.70;;;;;;10256060;28;20247;-74
2023/09/16 09:42:20;;;;;;;7.40;6.80;;;25.00;39.20;;;;;;10254639;28;20804;-73
2023/09/16 09:47:24;;;;;;;8.27;6.70;;;25.20;39.00;;;;;;10251938;28;20232;-71
2023/09/16 09:52:30;;;;;;;6.50;6.10;;;25.40;39.00;;;;;;10253551;28;20235;-76
2023/09/16 09:57:35;;;;;;;7.13;6.43;;;25.60;38.50;;;;;;10248106;28;20771;-73
2023/09/16 10:02:40;;;;;;;6.60;6.00;;;25.90;38.40;;;;;;10249819;28;20239;-73
2023/09/16 10:07:55;;;;;;;6.77;6.27;;;26.10;38.10;;;;;;10246325;28;20254;-73
2023/09/16 10:12:59;;;;;;;6.10;5.70;;;26.20;37.50;;;;;;10246174;28;20232;-72
2023/09/16 10:18:03;;;;;;;6.63;6.13;;;26.30;37.60;;;;;;10248680;28;20254;-74
2023/09/16 10:23:08;;;;;;;6.40;5.90;;;26.40;37.30;;;;;;10235644;28;20250;-73
2023/09/16 10:28:12;;;;;;;6.73;6.27;;;26.50;37.10;;;;;;10235992;28;20258;-73
2023/09/16 10:33:16;;;;;;;8.10;6.03;;;26.70;37.00;;;;;;10240950;28;20285;-73
2023/09/16 10:38:23;;;;;;;6.97;6.47;;;26.80;37.00;;;;;;10241581;28;20235;-72
2023/09/16 10:43:26;;;;;;;6.73;6.23;;;26.90;36.40;;;;;;10237887;28;20232;-73
2023/09/16 10:48:30;;;;;;;6.40;6.00;;;27.10;36.30;;;;;;10248387;28;20706;-76
2023/09/16 10:53:39;;;;;;;7.20;6.63;;;27.20;36.30;;;;;;10247044;28;20236;-77
2023/09/16 10:58:47;;;;;;;6.47;5.97;;;27.30;35.40;;;;;;10247718;28;20334;-77
2023/09/16 11:03:56;;;;;;;7.30;6.47;;;27.40;35.30;;;;;;10247214;28;20271;-76
2023/09/16 11:09:01;;;;;;;6.83;6.33;;;27.50;35.10;;;;;;10243564;28;20255;-76
2023/09/16 11:14:06;;;;;;;6.03;5.63;;;27.50;35.20;;;;;;10258750;28;20238;-76
2023/09/16 11:19:09;;;;;;;6.00;5.60;;;27.60;35.40;;;;;;10264516;28;20231;-76
2023/09/16 11:24:14;;;;;;;5.80;5.40;;;27.80;35.30;;;;;;10260423;28;20243;-75
2023/09/16 11:29:18;;;;;;;5.00;4.60;;;27.90;34.60;;;;;;10257168;28;20220;-75
2023/09/16 11:34:24;;;;;;;4.57;4.27;;;28.00;35.00;;;;;;10261209;28;20662;-75
2023/09/16 11:39:39;;;;;;;5.20;4.90;;;28.20;34.00;;;;;;10253347;28;20234;-75
2023/09/16 11:44:43;;;;;;;5.30;4.90;;;28.30;33.60;;;;;;10252308;28;20241;-73
2023/09/16 11:49:48;;;;;;;5.13;4.83;;;28.40;34.20;;;;;;10256139;28;20224;-72
2023/09/16 11:54:52;;;;;;;4.83;4.53;;;28.50;33.80;;;;;;10258108;28;20236;-73
2023/09/16 11:59:59;;;;;;;5.37;4.97;;;28.60;32.90;;;;;;10258104;28;20383;-74
2023/09/16 12:05:03;;;;;;;5.33;4.83;;;28.70;32.80;;;;;;10258474;28;20224;-74
2023/09/16 12:10:09;;;;;;;5.00;4.70;;;28.70;33.10;;;;;;10262062;28;20661;-73
2023/09/16 12:15:13;;;;;;;6.07;5.10;;;28.80;32.10;;;;;;10262317;28;20805;-75
2023/09/16 12:20:17;;;;;;;5.60;5.20;;;28.80;32.60;;;;;;10253421;28;20230;-75
2023/09/16 12:25:22;;;;;;;5.17;4.73;;;28.80;32.30;;;;;;10259381;28;20290;-75
2023/09/16 12:30:25;;;;;;;5.50;5.10;;;28.80;31.90;;;;;;10257547;28;20338;-75
2023/09/16 12:35:29;;;;;;;4.83;4.53;;;28.90;32.00;;;;;;10258847;28;20336;-75
2023/09/16 12:40:35;;;;;;;5.00;4.70;;;28.90;31.80;;;;;;10263965;28;20749;-75
2023/09/16 12:45:40;;;;;;;5.20;4.90;;;28.90;31.20;;;;;;10262137;28;20231;-76
2023/09/16 12:50:44;;;;;;;5.33;5.03;;;28.90;30.80;;;;;;10257099;28;20234;-75
2023/09/16 12:55:50;;;;;;;4.73;4.30;;;28.80;31.00;;;;;;10258197;28;20229;-75
2023/09/16 13:00:54;;;;;;;4.80;4.50;;;28.90;30.80;;;;;;10261506;28;20236;-75
2023/09/16 13:05:58;;;;;;;4.80;4.50;;;28.90;30.80;;;;;;10260092;28;20227;-75
2023/09/16 13:11:03;;;;;;;4.53;4.23;;;28.90;31.00;;;;;;10258629;28;20890;-76
2023/09/16 13:16:07;;;;;;;4.90;4.50;;;29.00;30.90;;;;;;10259905;28;20231;-75
2023/09/16 13:21:11;;;;;;;4.57;4.20;;;29.00;30.90;;;;;;10266999;28;20220;-75
2023/09/16 13:26:15;;;;;;;4.77;4.37;;;29.00;30.90;;;;;;10261315;28;20250;-75
2023/09/16 13:31:22;;;;;;;4.60;4.30;;;29.00;30.70;;;;;;10264636;28;20227;-75
2023/09/16 13:36:27;;;;;;;4.70;4.40;;;29.10;30.00;;;;;;10264452;28;20244;-71
2023/09/16 13:41:32;;;;;;;4.63;4.33;;;29.10;30.90;;;;;;10259323;28;20227;-72
2023/09/16 13:46:35;;;;;;;4.50;4.20;;;29.10;30.10;;;;;;10264914;28;20242;-72
2023/09/16 13:51:38;;;;;;;4.10;3.80;;;29.10;30.90;;;;;;10259715;28;20235;-73
2023/09/16 13:56:43;;;;;;;4.80;4.47;;;29.20;30.40;;;;;;10258924;28;20239;-73
2023/09/16 14:01:46;;;;;;;3.90;3.70;;;29.20;30.00;;;;;;10261437;28;20268;-74
2023/09/16 14:06:50;;;;;;;4.07;3.87;;;29.20;30.00;;;;;;10267026;28;20237;-73
2023/09/16 14:11:55;;;;;;;7.27;4.00;;;29.30;30.40;;;;;;10261836;28;20224;-71
2023/09/16 14:16:58;;;;;;;4.20;3.90;;;29.30;29.60;;;;;;10266547;28;20233;-76
2023/09/16 14:22:01;;;;;;;4.10;3.70;;;29.30;30.00;;;;;;10263360;28;20334;-75
2023/09/16 14:27:06;;;;;;;5.10;4.10;;;29.40;29.90;;;;;;10264043;28;20227;-74
2023/09/16 14:32:11;;;;;;;4.00;3.80;;;29.40;29.50;;;;;;10260845;28;20224;-74
2023/09/16 14:37:15;;;;;;;3.80;3.60;;;29.50;29.80;;;;;;10261437;28;20764;-75
2023/09/16 14:42:19;;;;;;;3.80;3.60;;;29.50;29.50;;;;;;10258943;28;20227;-74
2023/09/16 14:47:23;;;;;;;4.07;3.77;;;29.50;29.10;;;;;;10260179;28;20787;-75
2023/09/16 14:52:27;;;;;;;3.57;3.27;;;29.50;29.10;;;;;;10256792;28;20224;-75
2023/09/16 14:57:32;;;;;;;3.30;3.10;;;29.50;29.30;;;;;;10260980;28;20275;-75
2023/09/16 15:02:36;;;;;;;3.87;3.67;;;29.50;28.70;;;;;;10256068;28;20230;-73
2023/09/16 15:07:39;;;;;;;4.43;4.00;;;29.60;28.90;;;;;;10261442;28;20231;-72
2023/09/16 15:12:44;;;;;;;3.87;3.67;;;29.60;28.80;;;;;;10261155;28;20231;-72
2023/09/16 15:17:47;;;;;;;3.43;3.23;;;29.60;28.60;;;;;;10258238;28;20235;-79
2023/09/16 15:22:50;;;;;;;3.67;3.37;;;29.60;28.80;;;;;;10267267;28;20302;-76
2023/09/16 15:27:55;;;;;;;3.70;3.50;;;29.60;28.70;;;;;;10261852;28;20380;-76
2023/09/16 15:32:58;;;;;;;3.30;3.10;;;29.60;28.50;;;;;;10262207;28;20220;-76
2023/09/16 15:38:02;;;;;;;3.33;3.13;;;29.60;28.70;;;;;;10262694;28;20602;-75
2023/09/16 15:43:08;;;;;;;3.80;3.60;;;29.60;28.60;;;;;;10264845;28;20726;-75
2023/09/16 15:48:12;;;;;;;3.60;3.40;;;29.60;28.40;;;;;;10261882;28;20791;-75
2023/09/16 15:53:15;;;;;;;4.07;3.80;;;29.60;28.50;;;;;;10262757;28;20605;-76
2023/09/16 15:58:20;;;;;;;4.20;3.90;;;29.60;28.60;;;;;;10259564;28;20231;-75
2023/09/16 16:03:24;;;;;;;4.00;3.70;;;29.50;28.20;;;;;;10261598;28;20282;-76
2023/09/16 16:08:28;;;;;;;3.50;3.30;;;29.50;28.30;;;;;;10261265;28;20324;-76
2023/09/16 16:13:33;;;;;;;3.97;3.60;;;29.40;28.40;;;;;;10263652;28;20318;-76
2023/09/16 16:18:36;;;;;;;4.03;3.73;;;29.40;28.20;;;;;;10262149;28;20237;-75
2023/09/16 16:23:40;;;;;;;4.10;3.80;;;29.30;28.20;;;;;;10258210;28;20603;-76
2023/09/16 16:28:44;;;;;;;5.50;5.03;;;29.30;28.20;;;;;;10259473;28;20258;-75
2023/09/16 16:33:47;;;;;;;4.90;4.50;;;29.30;27.90;;;;;;10258492;28;20227;-75
2023/09/16 16:38:52;;;;;;;4.20;3.80;;;29.20;28.00;;;;;;10260482;28;20242;-75
2023/09/16 16:43:56;;;;;;;3.77;3.57;;;29.10;28.00;;;;;;10260222;28;20347;-74
2023/09/16 16:49:00;;;;;;;3.53;3.30;;;29.10;28.00;;;;;;10263913;28;20215;-75
2023/09/16 16:54:03;;;;;;;3.50;3.20;;;29.00;28.50;;;;;;10264282;28;20226;-74
2023/09/16 16:59:08;;;;;;;3.67;3.47;;;29.00;28.70;;;;;;10267244;28;20254;-72
2023/09/16 17:04:14;;;;;;;3.67;3.40;;;28.90;28.50;;;;;;10264868;28;20227;-72
2023/09/16 17:09:18;;;;;;;3.93;3.73;;;28.90;28.70;;;;;;10260255;28;20227;-72
2023/09/16 17:14:22;;;;;;;3.77;3.47;;;28.80;28.70;;;;;;10262987;28;20242;-72
2023/09/16 17:19:26;;;;;;;4.10;3.80;;;28.70;28.80;;;;;;10268113;28;20330;-75
2023/09/16 17:24:29;;;;;;;4.10;3.70;;;28.50;29.00;;;;;;10275503;28;20259;-75
2023/09/16 17:29:34;;;;;;;4.47;4.17;;;28.40;29.20;;;;;;10273314;28;20246;-75
2023/09/16 17:34:38;;;;;;;4.97;3.50;;;28.40;29.40;;;;;;10266319;28;20227;-72
2023/09/16 17:39:41;;;;;;;3.80;3.40;;;28.30;29.50;;;;;;10261403;28;20283;-72
2023/09/16 17:44:46;;;;;;;3.40;3.20;;;28.20;29.60;;;;;;10267977;28;20661;-76
2023/09/16 17:49:49;;;;;;;4.93;4.43;;;28.00;29.70;;;;;;10271378;28;20338;-76
2023/09/16 17:54:53;;;;;;;4.50;4.20;;;27.80;29.70;;;;;;10269175;28;20760;-76
2023/09/16 17:59:58;;;;;;;6.23;4.03;;;27.70;30.00;;;;;;10261683;28;20573;-73
2023/09/16 18:05:02;;;;;;;4.60;4.20;;;27.50;30.00;;;;;;10264778;28;20232;-74
2023/09/16 18:10:06;;;;;;;4.03;3.73;;;27.30;29.90;;;;;;10266393;28;20926;-74
2023/09/16 18:15:15;;;;;;;4.20;3.90;;;27.20;29.80;;;;;;10265948;28;20224;-73
2023/09/16 18:20:19;;;;;;;5.93;4.30;;;27.00;30.00;;;;;;10261955;28;20259;-73
2023/09/16 18:25:22;;;;;;;3.93;3.53;;;26.80;30.10;;;;;;10259706;28;20240;-73
2023/09/16 18:30:28;;;;;;;4.23;3.83;;;26.60;30.40;;;;;;10264126;28;20240;-73
2023/09/16 18:35:32;;;;;;;4.60;4.30;;;26.50;30.80;;;;;;10261598;28;20232;-72
2023/09/16 18:40:35;;;;;;;4.17;3.87;;;26.40;30.90;;;;;;10257962;28;20228;-73
2023/09/16 18:45:40;;;;;;;4.27;3.97;;;26.30;30.80;;;;;;10263170;28;20318;-73
2023/09/16 18:50:43;;;;;;;5.37;4.47;;;26.20;30.90;;;;;;10262986;28;20230;-73
2023/09/16 18:55:46;;;;;;;4.63;4.27;;;26.10;30.70;;;;;;10261148;28;20232;-73
2023/09/16 19:00:51;;;;;;;4.83;4.53;;;26.00;30.70;;;;;;10259061;28;20242;-73
2023/09/16 19:05:54;;;;;;;4.57;4.27;;;25.80;31.20;;;;;;10263493;28;20231;-73
2023/09/16 19:10:57;;;;;;;4.73;4.33;;;25.60;31.20;;;;;;10256905;28;20227;-73
2023/09/16 19:16:02;;;;;;;5.23;4.83;;;25.50;31.70;;;;;;10260875;28;20322;-73
2023/09/16 19:21:06;;;;;;;5.53;5.13;;;25.40;32.30;;;;;;10256463;28;20232;-73
2023/09/16 19:26:09;;;;;;;6.13;5.63;;;25.20;32.00;;;;;;10259366;28;20739;-73
2023/09/16 19:31:14;;;;;;;5.40;5.00;;;25.20;32.10;;;;;;10257131;28;20599;-73
2023/09/16 19:36:18;;;;;;;5.27;4.77;;;25.00;32.60;;;;;;10254919;28;20232;-72
2023/09/16 19:41:21;;;;;;;5.43;5.03;;;24.80;32.30;;;;;;10262307;28;20240;-73
2023/09/16 19:46:26;;;;;;;7.23;6.60;;;24.60;32.60;;;;;;10255938;28;20235;-73
2023/09/16 19:51:29;;;;;;;7.67;6.80;;;24.50;33.20;;;;;;10261728;28;20232;-73
2023/09/16 19:56:33;;;;;;;6.37;5.77;;;24.30;32.90;;;;;;10260374;28;20236;-74
2023/09/16 20:01:38;;;;;;;5.73;5.23;;;24.20;33.20;;;;;;10253852;28;20232;-73
2023/09/16 20:06:41;;;;;;;5.67;5.17;;;24.10;33.50;;;;;;10255890;28;20813;-73
2023/09/16 20:11:45;;;;;;;6.40;5.47;;;24.00;33.40;;;;;;10249736;28;20236;-73
2023/09/16 20:16:49;;;;;;;6.47;5.90;;;24.00;33.40;;;;;;10257104;28;20232;-73
2023/09/16 20:21:53;;;;;;;5.90;5.47;;;24.00;33.80;;;;;;10255050;28;20228;-73
2023/09/16 20:26:56;;;;;;;8.93;8.13;;;23.80;33.40;;;;;;10254766;28;21247;-73
2023/09/16 20:32:00;;;;;;;8.90;8.20;;;23.60;33.70;;;;;;10260031;28;20661;-73
2023/09/16 20:37:04;;;;;;;8.93;8.13;;;23.50;34.30;;;;;;10254146;28;20390;-73
2023/09/16 20:42:07;;;;;;;7.40;6.80;;;23.40;34.10;;;;;;10243934;28;20706;-74
2023/09/16 20:47:13;;;;;;;7.00;6.40;;;23.20;34.10;;;;;;10246179;28;20232;-73
2023/09/16 20:52:17;;;;;;;5.57;5.10;;;23.00;34.70;;;;;;10246816;28;20224;-73
2023/09/16 20:57:20;;;;;;;5.80;5.40;;;22.90;34.50;;;;;;10253506;28;20729;-74
2023/09/16 21:02:27;;;;;;;6.93;6.33;;;22.90;34.60;;;;;;10244835;28;21308;-74
2023/09/16 21:07:30;;;;;;;6.70;6.10;;;22.80;35.10;;;;;;10237559;28;20274;-73
2023/09/16 21:12:33;;;;;;;6.37;5.93;;;22.80;34.80;;;;;;10241472;28;20318;-74
2023/09/16 21:17:40;;;;;;;8.00;7.40;;;22.80;34.80;;;;;;10244825;28;20232;-73
2023/09/16 21:22:43;;;;;;;7.80;7.03;;;22.70;35.30;;;;;;10242562;28;20232;-73
2023/09/16 21:27:46;;;;;;;7.03;6.53;;;22.70;34.90;;;;;;10238991;28;20657;-73
2023/09/16 21:32:51;;;;;;;7.17;6.67;;;22.60;35.00;;;;;;10249718;28;20916;-73
2023/09/16 21:37:54;;;;;;;8.10;7.47;;;22.50;35.20;;;;;;10250734;28;20224;-73
2023/09/16 21:42:57;;;;;;;8.97;8.17;;;22.40;34.80;;;;;;10259901;28;20274;-74
2023/09/16 21:48:03;;;;;;;8.53;7.87;;;22.20;35.20;;;;;;10255605;28;20232;-73
2023/09/16 21:53:09;;;;;;;7.47;6.87;;;22.10;36.00;;;;;;10256289;28;20252;-73
2023/09/16 21:58:12;;;;;;;7.83;7.27;;;22.00;35.80;;;;;;10250628;28;20235;-73
2023/09/16 22:03:17;;;;;;;7.50;6.90;;;22.00;35.80;;;;;;10244009;28;20282;-73
2023/09/16 22:08:20;;;;;;;7.47;6.83;;;22.10;36.20;;;;;;10244623;28;20230;-73
2023/09/16 22:13:24;;;;;;;7.63;7.07;;;22.10;35.80;;;;;;10245312;28;20235;-73
2023/09/16 22:18:28;;;;;;;8.47;7.67;;;22.10;35.90;;;;;;10249429;28;20223;-73
2023/09/16 22:23:32;;;;;;;8.43;7.73;;;22.10;36.30;;;;;;10248081;28;20238;-73
2023/09/16 22:28:35;;;;;;;7.97;7.27;;;21.90;35.80;;;;;;10255783;28;20228;-73
2023/09/16 22:33:40;;;;;;;8.00;7.40;;;21.80;35.90;;;;;;10257910;28;20229;-73
2023/09/16 22:38:43;;;;;;;8.10;7.50;;;21.70;36.70;;;;;;10255213;28;20234;-73
2023/09/16 22:43:47;;;;;;;8.30;7.60;;;21.50;36.40;;;;;;10253712;28;20740;-74
2023/09/16 22:48:52;;;;;;;8.20;7.60;;;21.50;36.70;;;;;;10251822;28;20671;-73
2023/09/16 22:53:55;;;;;;;8.37;7.67;;;21.50;37.10;;;;;;10255322;28;20319;-71
2023/09/16 22:58:59;;;;;;;9.50;8.60;;;21.50;36.70;;;;;;10248438;28;20239;-76
2023/09/16 23:04:03;;;;;;;9.17;8.43;;;21.50;36.60;;;;;;10259354;28;20242;-77
2023/09/16 23:09:07;;;;;;;9.07;8.37;;;21.40;37.00;;;;;;10236299;28;20243;-76
2023/09/16 23:14:10;;;;;;;13.60;12.43;;;21.40;37.40;;;;;;10258478;28;20228;-77
2023/09/16 23:19:15;;;;;;;11.17;10.20;;;21.40;36.70;;;;;;10258355;28;20224;-76
2023/09/16 23:24:18;;;;;;;10.23;9.33;;;21.30;37.20;;;;;;10252243;28;20319;-76
2023/09/16 23:29:21;;;;;;;20.80;18.97;;;21.20;36.90;;;;;;10255903;28;20231;-77
2023/09/16 23:34:28;;;;;;;13.73;12.63;;;21.10;37.00;;;;;;10257089;28;20331;-76
2023/09/16 23:39:31;;;;;;;11.50;10.40;;;21.10;37.50;;;;;;10256607;28;20357;-77
2023/09/16 23:44:34;;;;;;;14.00;12.60;;;21.00;37.40;;;;;;10255046;28;20236;-76
2023/09/16 23:49:40;;;;;;;13.90;12.50;;;20.80;37.20;;;;;;10259431;28;20224;-77
2023/09/16 23:54:44;;;;;;;10.37;9.37;;;20.70;37.10;;;;;;10257415;28;20234;-77
2023/09/16 23:59:47;;;;;;;11.13;10.13;;;20.70;37.10;;;;;;10254935;28;20223;-76
